Skookumchuck, Canada
Current Conditions -  °F | °C
As of 11:00 PM on Monday 20 Oct 2014 (Local Time) from CYXC Reporting Station
Broken Clouds Broken Clouds  
Wind Chill: 52°   Ceiling: 10000
Heat Index: 52°   Visibility: 25mi
Dew Point: 41°   Wind: 8mph
Humidity: 67%   Direction: 190°S
Pressure: 29.71"   Gusts: NA
Location:  49.9°N, 115.77°W
Report Text: CYXC 210500Z 19007KT 25SM BKN100 BKN140 11/05 A2971 RMK AC5AC2 SLP066 DENSITY ALT 3500FT
Loading
Personal Weather Stations






























Interactive Weather Map
Tropical Storm Tracking
New forecast layout! Learn more

10-Day Weather Forecast

Advertisements
Track Severe Weather on mobile